Time;durP1;ratioP1;P1;durP2;ratioP2;P2;SDS_P1;SDS_P2;PMS_P1;PMS_P2;Temp;Humidity;BMP_temperature;BMP_pressure;BME280_temperature;BME280_humidity;BME280_pressure;Samples;Min_cycle;Max_cycle;Signal;HPM_P1;HPM_P2
2022/10/13 00:00:44;;;;;;;8.38;4.05;;;19.20;61.60;;;;;;4965633;29;20019;-68
2022/10/13 00:03:11;;;;;;;11.23;4.32;;;19.20;61.60;;;;;;4965605;29;20039;-68
2022/10/13 00:05:45;;;;;;;7.45;3.42;;;19.20;61.60;;;;;;4965558;29;20030;-68
2022/10/13 00:08:14;;;;;;;7.47;3.50;;;19.20;61.70;;;;;;4965497;29;20023;-67
2022/10/13 00:10:40;;;;;;;7.47;4.00;;;19.20;61.70;;;;;;4965486;29;20027;-68
2022/10/13 00:13:07;;;;;;;9.02;4.07;;;19.20;61.60;;;;;;4965451;29;20023;-68
2022/10/13 00:15:38;;;;;;;7.63;3.47;;;19.20;61.60;;;;;;4965395;29;20078;-68
2022/10/13 00:18:03;;;;;;;7.22;3.72;;;19.20;61.60;;;;;;4965435;29;20086;-66
2022/10/13 00:20:29;;;;;;;9.40;3.65;;;19.20;61.60;;;;;;4965366;29;20382;-68
2022/10/13 00:22:55;;;;;;;10.60;3.72;;;19.20;61.60;;;;;;4965345;29;20032;-68
2022/10/13 00:25:21;;;;;;;7.80;3.88;;;19.20;61.70;;;;;;4965333;29;20215;-68
2022/10/13 00:27:46;;;;;;;9.05;3.58;;;19.20;61.70;;;;;;4965281;29;20027;-69
2022/10/13 00:30:12;;;;;;;7.55;3.30;;;19.20;61.70;;;;;;4964915;28;20023;-68
2022/10/13 00:32:38;;;;;;;7.72;3.95;;;19.20;61.70;;;;;;4965092;29;20046;-67
2022/10/13 00:35:04;;;;;;;11.05;4.05;;;19.20;61.70;;;;;;4965240;28;20283;-68
2022/10/13 00:37:30;;;;;;;6.90;3.38;;;19.20;61.60;;;;;;4965246;28;20195;-68
2022/10/13 00:39:56;;;;;;;17.02;4.18;;;19.20;61.70;;;;;;4965209;28;20050;-67
2022/10/13 00:42:25;;;;;;;6.35;3.58;;;19.20;61.70;;;;;;4980116;28;20026;-68
2022/10/13 00:44:56;;;;;;;8.45;3.97;;;19.20;61.70;;;;;;4965165;28;20023;-68
2022/10/13 00:47:23;;;;;;;8.30;4.03;;;19.20;61.60;;;;;;4965128;29;20066;-68
2022/10/13 00:49:49;;;;;;;4.25;3.22;;;19.20;61.60;;;;;;4965122;29;20024;-69
2022/10/13 00:52:16;;;;;;;6.47;3.05;;;19.20;61.70;;;;;;4965085;29;20023;-67
2022/10/13 00:54:43;;;;;;;6.47;2.97;;;19.20;61.70;;;;;;4964982;29;20086;-67
2022/10/13 00:57:10;;;;;;;9.50;3.50;;;19.20;61.70;;;;;;4965012;29;20298;-67
2022/10/13 00:59:37;;;;;;;6.43;3.72;;;19.20;61.70;;;;;;4965013;29;20034;-68
2022/10/13 01:02:03;;;;;;;8.80;4.77;;;19.20;61.70;;;;;;4965033;29;20082;-67
2022/10/13 01:04:36;;;;;;;5.72;3.42;;;19.10;61.70;;;;;;4964964;29;20337;-65
2022/10/13 01:07:04;;;;;;;8.43;3.40;;;19.10;61.70;;;;;;4964941;29;20082;-66
2022/10/13 01:09:36;;;;;;;7.47;3.60;;;19.10;61.70;;;;;;4964891;29;20027;-66
2022/10/13 01:12:16;;;;;;;8.18;3.78;;;19.10;61.70;;;;;;4965197;28;20027;-66
2022/10/13 01:15:24;;;;;;;7.30;3.78;;;19.10;61.60;;;;;;4964859;29;20023;-68
2022/10/13 01:18:01;;;;;;;8.95;4.10;;;19.10;61.70;;;;;;4964915;29;20039;-66
2022/10/13 01:20:53;;;;;;;9.45;4.00;;;19.10;61.70;;;;;;4964873;29;20147;-66
2022/10/13 01:23:41;;;;;;;8.30;3.75;;;19.10;61.70;;;;;;4964887;28;20310;-66
2022/10/13 01:26:49;;;;;;;6.93;3.85;;;19.10;61.70;;;;;;4964775;28;20031;-65
2022/10/13 01:29:39;;;;;;;10.75;4.70;;;19.10;61.70;;;;;;4966819;28;20032;-66
2022/10/13 01:32:14;;;;;;;6.18;3.22;;;19.10;61.60;;;;;;4964802;28;20034;-66
2022/10/13 01:34:40;;;;;;;7.53;3.85;;;19.10;61.60;;;;;;4964654;29;20039;-65
2022/10/13 01:37:19;;;;;;;5.78;3.28;;;19.10;61.70;;;;;;4964712;29;20357;-67
2022/10/13 01:40:13;;;;;;;7.10;3.90;;;19.10;61.70;;;;;;4964754;29;20020;-67
2022/10/13 01:42:57;;;;;;;7.45;3.92;;;19.10;61.70;;;;;;4966355;28;20020;-66
2022/10/13 01:45:30;;;;;;;6.90;3.35;;;19.10;61.60;;;;;;4968099;28;20033;-66
2022/10/13 01:47:58;;;;;;;7.85;3.15;;;19.10;61.70;;;;;;4968032;29;20378;-65
2022/10/13 01:50:24;;;;;;;7.10;3.30;;;19.10;61.70;;;;;;4967980;29;20019;-68
2022/10/13 01:52:51;;;;;;;4.75;3.15;;;19.10;61.70;;;;;;4967906;29;20323;-69
2022/10/13 01:55:17;;;;;;;5.78;3.63;;;19.10;61.70;;;;;;4967791;29;20027;-66
2022/10/13 01:57:44;;;;;;;7.80;3.40;;;19.10;61.70;;;;;;4967817;29;20341;-66
2022/10/13 02:00:16;;;;;;;10.80;3.72;;;19.10;61.70;;;;;;4967804;28;20325;-68
2022/10/13 02:03:09;;;;;;;6.00;3.58;;;19.10;61.70;;;;;;4967683;29;20030;-66
2022/10/13 02:06:12;;;;;;;8.15;3.30;;;19.00;61.60;;;;;;4967723;29;20042;-68
2022/10/13 02:09:03;;;;;;;4.38;3.38;;;19.10;61.70;;;;;;4967590;29;20023;-66
2022/10/13 02:11:29;;;;;;;7.50;3.25;;;19.10;61.70;;;;;;4967603;28;20033;-64
2022/10/13 02:14:15;;;;;;;9.52;3.83;;;19.10;61.70;;;;;;4967552;29;20050;-66
2022/10/13 02:16:43;;;;;;;6.07;3.35;;;19.00;61.60;;;;;;4967557;29;20019;-66
2022/10/13 02:19:13;;;;;;;5.85;3.20;;;19.00;61.70;;;;;;4967470;29;20015;-66
2022/10/13 02:21:40;;;;;;;9.18;3.80;;;19.00;61.70;;;;;;4967662;29;20201;-68
2022/10/13 02:24:07;;;;;;;11.70;3.85;;;19.00;61.70;;;;;;4967356;28;20306;-66
2022/10/13 02:26:34;;;;;;;6.97;3.67;;;19.00;61.70;;;;;;4967315;29;20318;-67
2022/10/13 02:29:06;;;;;;;6.47;3.90;;;19.00;61.70;;;;;;4967234;29;20023;-66
2022/10/13 02:31:32;;;;;;;6.40;3.30;;;19.00;61.70;;;;;;4967256;29;20038;-66
2022/10/13 02:33:57;;;;;;;6.68;3.30;;;19.00;61.70;;;;;;4967007;29;20094;-66
2022/10/13 02:36:23;;;;;;;5.22;3.30;;;19.00;61.70;;;;;;4967120;29;20070;-65
2022/10/13 02:38:49;;;;;;;5.10;3.33;;;19.00;61.70;;;;;;4967080;29;20034;-67
2022/10/13 02:41:15;;;;;;;8.02;3.47;;;19.00;61.70;;;;;;4967028;29;20027;-69
2022/10/13 02:43:40;;;;;;;7.30;3.58;;;19.00;61.70;;;;;;4966999;29;20025;-69
2022/10/13 02:46:06;;;;;;;6.60;3.67;;;19.00;61.70;;;;;;4966949;29;20027;-68
2022/10/13 02:48:32;;;;;;;8.27;3.85;;;19.00;61.70;;;;;;4966891;29;20021;-68
2022/10/13 02:50:57;;;;;;;6.80;2.90;;;19.00;61.70;;;;;;4966850;29;20362;-67
2022/10/13 02:53:23;;;;;;;6.50;3.35;;;19.00;61.70;;;;;;4966509;28;20299;-67
2022/10/13 02:55:49;;;;;;;6.47;3.80;;;19.00;61.70;;;;;;4966668;29;20027;-68
2022/10/13 02:58:14;;;;;;;7.90;4.15;;;19.00;61.60;;;;;;4966727;29;20015;-67
2022/10/13 03:00:40;;;;;;;5.15;3.40;;;19.00;61.60;;;;;;4966695;28;20019;-68
2022/10/13 03:03:06;;;;;;;7.95;3.70;;;19.00;61.70;;;;;;4966571;29;20042;-68
2022/10/13 03:05:32;;;;;;;6.03;3.53;;;19.00;61.70;;;;;;4966593;29;20027;-68
2022/10/13 03:07:58;;;;;;;5.63;3.40;;;19.00;61.70;;;;;;4966516;29;20353;-68
2022/10/13 03:10:23;;;;;;;6.20;2.97;;;19.00;61.70;;;;;;4966496;29;20031;-68
2022/10/13 03:12:49;;;;;;;8.82;3.22;;;19.00;61.70;;;;;;4966447;28;20026;-68
2022/10/13 03:15:15;;;;;;;7.70;3.85;;;19.00;61.70;;;;;;4966272;29;20031;-68
2022/10/13 03:17:41;;;;;;;5.43;3.42;;;19.00;61.70;;;;;;4966377;29;20019;-68
2022/10/13 03:20:08;;;;;;;6.78;3.45;;;19.00;61.70;;;;;;4966371;28;20069;-67
2022/10/13 03:22:33;;;;;;;5.88;3.40;;;19.00;61.70;;;;;;4966311;28;20019;-68
2022/10/13 03:24:59;;;;;;;9.20;4.03;;;19.00;61.70;;;;;;4966244;29;20033;-67
2022/10/13 03:27:25;;;;;;;3.50;2.72;;;18.90;61.60;;;;;;4966208;29;20230;-68
2022/10/13 03:29:51;;;;;;;4.88;2.90;;;19.00;61.70;;;;;;4966156;29;20019;-68
2022/10/13 03:32:16;;;;;;;3.28;2.50;;;19.00;61.70;;;;;;4965979;29;20314;-68
2022/10/13 03:34:42;;;;;;;5.45;3.35;;;19.00;61.70;;;;;;4965966;29;20071;-68
2022/10/13 03:37:08;;;;;;;4.75;3.15;;;19.00;61.70;;;;;;4966034;29;20023;-68
2022/10/13 03:39:34;;;;;;;8.15;3.33;;;19.00;61.70;;;;;;4965942;29;20086;-67
2022/10/13 03:41:59;;;;;;;5.43;3.53;;;18.90;61.60;;;;;;4965945;29;20039;-68
2022/10/13 03:44:25;;;;;;;6.30;3.17;;;19.00;61.80;;;;;;4965888;28;20019;-67
2022/10/13 03:46:51;;;;;;;5.65;2.97;;;18.90;61.60;;;;;;4965854;29;20023;-68
2022/10/13 03:49:17;;;;;;;5.95;3.28;;;19.00;61.70;;;;;;4965830;29;20027;-68
2022/10/13 03:51:44;;;;;;;4.85;3.20;;;19.00;61.70;;;;;;4965755;29;20027;-67
2022/10/13 03:54:13;;;;;;;7.75;3.45;;;18.90;61.70;;;;;;4965652;29;20023;-68
2022/10/13 03:56:39;;;;;;;5.93;3.60;;;19.00;61.70;;;;;;4965712;29;20015;-65
2022/10/13 03:59:06;;;;;;;6.63;3.13;;;19.00;61.70;;;;;;4965687;28;20019;-67
2022/10/13 04:01:32;;;;;;;6.00;3.60;;;19.00;61.70;;;;;;4965631;29;20015;-68
2022/10/13 04:04:01;;;;;;;4.88;3.72;;;19.00;61.70;;;;;;4965442;28;20024;-67
2022/10/13 04:06:26;;;;;;;;;;;18.90;61.60;;;;;;4965620;28;20015;-68
2022/10/13 04:08:53;;;;;;;5.68;3.42;;;18.90;61.60;;;;;;4965536;28;19996;-67
2022/10/13 04:11:20;;;;;;;4.68;3.33;;;18.90;61.60;;;;;;4965507;29;20457;-68
2022/10/13 04:13:45;;;;;;;6.55;3.63;;;18.90;61.60;;;;;;4964328;28;20281;-67
2022/10/13 04:16:15;;;;;;;5.47;3.53;;;18.90;61.60;;;;;;4964244;29;20023;-68
2022/10/13 04:18:41;;;;;;;5.82;3.70;;;18.90;61.60;;;;;;4965420;29;20094;-68
2022/10/13 04:21:12;;;;;;;6.13;3.30;;;18.90;61.70;;;;;;4965400;29;20020;-69
2022/10/13 04:23:37;;;;;;;6.88;3.50;;;18.90;61.60;;;;;;4965329;29;20015;-67
2022/10/13 04:26:04;;;;;;;5.20;3.10;;;18.90;61.70;;;;;;4965330;29;20086;-64
2022/10/13 04:28:34;;;;;;;3.78;2.70;;;18.90;61.60;;;;;;4965306;29;20023;-67
2022/10/13 04:31:01;;;;;;;5.25;3.33;;;18.90;61.60;;;;;;4965260;28;20033;-68
2022/10/13 04:33:27;;;;;;;4.82;3.40;;;18.90;62.30;;;;;;4965234;29;20403;-68
2022/10/13 04:35:53;;;;;;;4.95;2.67;;;18.90;61.70;;;;;;4965168;29;20123;-68
2022/10/13 04:38:18;;;;;;;5.72;3.30;;;18.90;61.70;;;;;;4965187;29;20023;-68
2022/10/13 04:40:44;;;;;;;6.85;4.20;;;18.90;61.60;;;;;;4965190;29;20038;-67
2022/10/13 04:43:10;;;;;;;5.82;3.60;;;18.90;61.70;;;;;;4965161;29;20015;-68
2022/10/13 04:45:36;;;;;;;5.68;2.83;;;18.90;61.60;;;;;;4965129;29;20027;-68
2022/10/13 04:48:01;;;;;;;7.80;3.20;;;18.90;61.60;;;;;;4965111;29;20038;-68
2022/10/13 04:50:27;;;;;;;5.65;3.38;;;18.90;61.70;;;;;;4965102;29;20028;-68
2022/10/13 04:52:53;;;;;;;5.60;3.05;;;18.90;61.60;;;;;;4965081;29;20074;-68
2022/10/13 04:55:19;;;;;;;4.72;3.35;;;18.90;61.60;;;;;;4964991;29;20082;-68
2022/10/13 04:57:44;;;;;;;7.28;3.28;;;18.90;61.60;;;;;;4965063;28;20038;-68
2022/10/13 05:00:11;;;;;;;6.72;3.38;;;18.90;61.60;;;;;;4965037;29;20042;-67
2022/10/13 05:02:37;;;;;;;5.47;3.35;;;18.90;61.60;;;;;;4964993;28;20019;-69
2022/10/13 05:05:03;;;;;;;3.90;3.20;;;18.90;61.60;;;;;;4964994;29;20301;-65
2022/10/13 05:07:30;;;;;;;6.18;3.30;;;18.90;61.60;;;;;;4964894;29;20034;-67
2022/10/13 05:09:56;;;;;;;5.28;3.03;;;18.90;61.60;;;;;;4964911;29;20065;-66
2022/10/13 05:12:22;;;;;;;6.40;3.03;;;18.90;61.70;;;;;;4964958;29;20031;-66
2022/10/13 05:14:48;;;;;;;6.80;2.83;;;18.90;61.60;;;;;;4979777;28;20023;-66
2022/10/13 05:17:13;;;;;;;4.72;3.05;;;18.90;61.60;;;;;;4967536;28;20042;-65
2022/10/13 05:19:39;;;;;;;5.05;2.88;;;18.80;61.60;;;;;;4968502;29;20019;-66
2022/10/13 05:22:05;;;;;;;5.32;3.35;;;18.80;61.60;;;;;;4968518;29;20218;-66
2022/10/13 05:24:35;;;;;;;7.88;3.08;;;18.90;61.60;;;;;;4983485;28;20027;-68
2022/10/13 05:27:10;;;;;;;5.03;2.90;;;18.90;61.60;;;;;;4968433;28;20019;-68
2022/10/13 05:29:36;;;;;;;6.20;3.05;;;18.80;61.50;;;;;;4968379;29;20042;-66
2022/10/13 05:32:03;;;;;;;3.55;3.13;;;18.90;61.50;;;;;;4968315;29;20381;-66
2022/10/13 05:34:29;;;;;;;4.15;2.88;;;18.90;61.50;;;;;;4968092;28;20394;-66
2022/10/13 05:36:55;;;;;;;4.32;3.17;;;18.90;61.50;;;;;;4968253;28;20026;-66
2022/10/13 05:39:21;;;;;;;7.32;3.22;;;18.90;61.50;;;;;;4968174;28;20015;-66
2022/10/13 05:41:47;;;;;;;5.13;3.10;;;18.90;61.50;;;;;;4968146;29;20239;-66
2022/10/13 05:44:15;;;;;;;4.70;3.15;;;18.90;61.50;;;;;;4968143;28;20026;-66
2022/10/13 05:46:41;;;;;;;4.50;2.67;;;18.90;61.50;;;;;;4968073;28;20086;-68
2022/10/13 05:49:06;;;;;;;4.43;3.55;;;18.90;61.40;;;;;;4968001;29;20019;-68
2022/10/13 05:51:49;;;;;;;5.97;3.20;;;18.90;61.40;;;;;;4967969;29;20023;-68
2022/10/13 05:54:16;;;;;;;5.32;3.38;;;18.90;61.40;;;;;;4967891;28;20053;-68
2022/10/13 05:56:55;;;;;;;5.30;3.10;;;18.90;61.40;;;;;;4967868;29;20311;-68
2022/10/13 05:59:23;;;;;;;4.55;2.97;;;18.90;61.40;;;;;;4967859;29;20295;-68
2022/10/13 06:01:50;;;;;;;5.07;3.08;;;18.90;61.40;;;;;;4967805;29;20031;-69
2022/10/13 06:04:23;;;;;;;5.00;3.15;;;18.90;61.40;;;;;;4967729;28;20023;-69
2022/10/13 06:06:49;;;;;;;8.30;3.42;;;18.90;61.30;;;;;;4967724;29;20049;-68
2022/10/13 06:09:15;;;;;;;6.43;3.05;;;18.90;61.40;;;;;;4967602;29;20023;-68
2022/10/13 06:11:41;;;;;;;3.63;2.67;;;18.90;61.40;;;;;;4967605;29;20090;-68
2022/10/13 06:14:06;;;;;;;4.22;2.95;;;18.90;61.40;;;;;;4967477;29;20031;-68
2022/10/13 06:16:35;;;;;;;4.43;3.35;;;18.90;61.40;;;;;;4967475;29;20019;-68
2022/10/13 06:19:02;;;;;;;4.97;3.00;;;18.90;61.40;;;;;;4967468;29;20322;-67
2022/10/13 06:21:28;;;;;;;4.70;3.30;;;18.90;61.30;;;;;;4967408;29;20015;-68
2022/10/13 06:23:53;;;;;;;4.15;2.95;;;18.90;61.40;;;;;;4967383;28;20019;-68
2022/10/13 06:26:19;;;;;;;3.58;3.28;;;18.90;61.40;;;;;;4967261;29;20069;-66
2022/10/13 06:28:45;;;;;;;3.70;3.22;;;18.90;61.40;;;;;;4966627;28;20069;-68
2022/10/13 06:31:11;;;;;;;6.30;2.65;;;18.90;61.30;;;;;;4967257;29;20023;-68
2022/10/13 06:33:36;;;;;;;6.13;3.17;;;18.90;61.30;;;;;;4967132;28;20055;-68
2022/10/13 06:36:04;;;;;;;3.97;3.10;;;18.90;61.30;;;;;;4967372;28;20196;-67
2022/10/13 06:38:30;;;;;;;3.92;2.72;;;18.90;61.30;;;;;;4967045;29;20042;-67
2022/10/13 06:41:04;;;;;;;4.43;2.60;;;18.90;61.30;;;;;;4967081;28;20239;-68
2022/10/13 06:43:30;;;;;;;3.45;2.67;;;18.90;61.30;;;;;;4967280;29;20052;-67
2022/10/13 06:46:02;;;;;;;5.88;3.38;;;18.90;61.20;;;;;;4966954;29;20023;-68
2022/10/13 06:48:28;;;;;;;3.63;2.85;;;18.90;61.20;;;;;;4966935;28;20019;-68
2022/10/13 06:50:53;;;;;;;6.38;3.65;;;18.90;61.20;;;;;;4966880;29;20030;-67
2022/10/13 06:53:20;;;;;;;3.72;3.13;;;18.90;61.20;;;;;;4967072;29;20023;-68
2022/10/13 06:55:45;;;;;;;5.18;3.40;;;18.90;61.20;;;;;;4966691;29;20050;-68
2022/10/13 06:58:11;;;;;;;4.25;3.15;;;18.90;61.20;;;;;;4966699;28;20307;-68
2022/10/13 07:00:39;;;;;;;4.32;2.90;;;18.90;61.10;;;;;;4966687;29;20078;-68
2022/10/13 07:03:05;;;;;;;10.10;3.70;;;19.00;61.40;;;;;;4966692;29;20039;-69
2022/10/13 07:05:31;;;;;;;3.75;2.75;;;19.00;61.10;;;;;;4966637;29;20520;-68
2022/10/13 07:07:57;;;;;;;6.95;3.00;;;19.00;61.10;;;;;;4966593;29;20027;-68
2022/10/13 07:10:23;;;;;;;3.95;3.05;;;19.00;61.30;;;;;;4966492;29;20090;-68
2022/10/13 07:12:48;;;;;;;6.80;3.17;;;18.90;61.00;;;;;;4966488;29;20023;-68
2022/10/13 07:15:14;;;;;;;2.83;2.47;;;19.00;61.10;;;;;;4966294;29;20027;-68
2022/10/13 07:17:40;;;;;;;4.65;3.20;;;19.00;61.00;;;;;;4966400;28;20030;-68
2022/10/13 07:20:06;;;;;;;3.80;2.58;;;19.00;61.00;;;;;;4981338;28;20023;-68
2022/10/13 07:22:32;;;;;;;4.13;3.25;;;19.00;61.00;;;;;;4966311;29;20026;-68
2022/10/13 07:24:58;;;;;;;5.70;2.88;;;19.00;61.00;;;;;;4966230;29;20047;-68
2022/10/13 07:27:24;;;;;;;4.30;2.92;;;19.00;61.00;;;;;;4981162;28;20051;-68
2022/10/13 07:29:49;;;;;;;5.20;3.53;;;19.00;61.00;;;;;;4966069;29;20219;-68
2022/10/13 07:32:15;;;;;;;3.38;2.95;;;19.00;60.90;;;;;;4965847;29;20031;-67
2022/10/13 07:34:41;;;;;;;5.60;2.80;;;19.00;60.90;;;;;;4966015;29;20023;-67
2022/10/13 07:37:07;;;;;;;3.47;3.15;;;19.10;60.80;;;;;;4966038;29;20034;-67
2022/10/13 07:39:33;;;;;;;4.25;2.78;;;19.10;60.70;;;;;;4965087;28;20248;-69
2022/10/13 07:41:59;;;;;;;3.47;3.03;;;19.10;60.80;;;;;;4965949;29;20054;-68
2022/10/13 07:44:25;;;;;;;3.78;2.90;;;19.10;60.80;;;;;;4965923;29;20031;-67
2022/10/13 07:46:50;;;;;;;4.50;2.80;;;19.10;60.80;;;;;;4965899;29;20203;-68
2022/10/13 07:49:16;;;;;;;3.97;3.45;;;19.10;60.80;;;;;;4965816;29;20019;-69
2022/10/13 07:51:43;;;;;;;4.15;2.70;;;19.10;60.80;;;;;;4965793;29;20025;-68
2022/10/13 07:54:09;;;;;;;3.72;2.63;;;19.10;60.70;;;;;;4965688;28;20015;-68
2022/10/13 07:56:34;;;;;;;4.72;2.83;;;19.10;60.70;;;;;;4965742;28;20025;-68
2022/10/13 07:59:03;;;;;;;6.25;3.40;;;19.20;60.70;;;;;;4965676;29;20023;-67
2022/10/13 08:01:28;;;;;;;3.78;3.13;;;19.20;60.60;;;;;;4965662;28;20070;-68
2022/10/13 08:03:55;;;;;;;3.83;2.38;;;19.20;60.60;;;;;;4965602;29;20047;-68
2022/10/13 08:06:21;;;;;;;4.43;3.08;;;19.20;60.70;;;;;;4965607;28;20019;-67
2022/10/13 08:08:47;;;;;;;4.57;2.72;;;19.20;60.70;;;;;;4965553;29;20090;-68
2022/10/13 08:11:15;;;;;;;4.13;3.03;;;19.20;60.70;;;;;;4965521;28;20218;-68
2022/10/13 08:13:40;;;;;;;5.05;3.40;;;19.20;61.40;;;;;;4965501;29;20019;-68
2022/10/13 08:16:06;;;;;;;4.85;2.85;;;19.10;60.70;;;;;;4965312;28;20082;-68
2022/10/13 08:18:32;;;;;;;3.97;3.00;;;19.20;60.70;;;;;;4965435;29;20250;-68
2022/10/13 08:21:01;;;;;;;5.85;3.20;;;19.20;60.80;;;;;;4965379;29;20050;-67
2022/10/13 08:23:28;;;;;;;3.63;2.55;;;19.20;60.90;;;;;;4965360;29;20050;-67
2022/10/13 08:25:54;;;;;;;3.22;2.70;;;19.10;60.90;;;;;;4965375;28;20264;-68
2022/10/13 08:28:22;;;;;;;5.40;2.95;;;19.10;60.90;;;;;;4965328;29;20034;-68
2022/10/13 08:30:50;;;;;;;6.38;3.50;;;19.10;60.90;;;;;;4965291;29;20019;-68
2022/10/13 08:33:16;;;;;;;4.67;2.93;;;19.10;61.00;;;;;;4965107;28;20051;-68
2022/10/13 08:35:42;;;;;;;4.70;2.67;;;19.10;61.00;;;;;;4965173;29;20027;-68
2022/10/13 08:38:08;;;;;;;3.90;2.90;;;19.10;61.00;;;;;;4965231;28;20011;-68
2022/10/13 08:40:35;;;;;;;5.80;3.42;;;19.10;61.00;;;;;;4965206;28;20138;-68
2022/10/13 08:43:06;;;;;;;5.40;2.53;;;19.10;61.00;;;;;;4965172;29;20026;-67
2022/10/13 08:45:31;;;;;;;4.53;2.80;;;19.20;60.90;;;;;;4965157;29;20066;-67
2022/10/13 08:48:05;;;;;;;3.25;2.30;;;19.20;60.90;;;;;;4965151;29;20082;-67
2022/10/13 08:50:35;;;;;;;5.15;2.80;;;19.20;60.90;;;;;;4965204;28;20027;-67
2022/10/13 08:53:06;;;;;;;4.15;2.67;;;19.20;60.90;;;;;;4969019;29;20350;-69
2022/10/13 08:55:37;;;;;;;4.38;3.13;;;19.20;60.80;;;;;;4968954;29;20290;-67
2022/10/13 08:58:15;;;;;;;5.30;3.03;;;19.20;60.80;;;;;;4968974;29;20030;-69
2022/10/13 09:00:41;;;;;;;4.78;2.90;;;19.20;60.90;;;;;;4968963;29;20277;-66
2022/10/13 09:03:24;;;;;;;6.55;3.10;;;19.20;60.90;;;;;;4968840;29;20030;-65
2022/10/13 09:06:10;;;;;;;5.75;3.28;;;19.30;60.90;;;;;;4968827;29;20072;-68
2022/10/13 09:08:43;;;;;;;5.30;2.70;;;19.30;60.90;;;;;;4968804;29;20274;-68
2022/10/13 09:11:11;;;;;;;4.70;2.85;;;19.30;60.90;;;;;;4968746;28;20019;-66
2022/10/13 09:13:37;;;;;;;6.28;3.30;;;19.30;60.90;;;;;;4968707;29;20030;-66
2022/10/13 09:16:02;;;;;;;4.85;2.90;;;19.30;60.90;;;;;;4968540;29;20019;-69
2022/10/13 09:18:31;;;;;;;3.47;2.88;;;19.30;60.90;;;;;;4968584;29;20034;-66
2022/10/13 09:21:24;;;;;;;3.45;2.63;;;19.30;60.90;;;;;;4968803;29;20184;-68
2022/10/13 09:23:52;;;;;;;3.25;2.88;;;19.30;60.80;;;;;;4968557;28;20029;-68
2022/10/13 09:26:22;;;;;;;;;;;19.30;60.80;;;;;;4968884;29;20027;-66
2022/10/13 09:28:49;;;;;;;4.32;3.13;;;19.30;60.80;;;;;;4968426;28;19902;-66
2022/10/13 09:31:23;;;;;;;3.65;3.10;;;19.30;60.90;;;;;;4968627;28;20019;-66
2022/10/13 09:33:58;;;;;;;5.07;2.92;;;19.30;60.80;;;;;;4968163;29;20242;-66
2022/10/13 09:36:24;;;;;;;5.95;2.88;;;19.30;60.80;;;;;;4968208;29;20090;-66
2022/10/13 09:39:16;;;;;;;5.20;2.85;;;19.30;60.70;;;;;;4968225;29;20378;-66
2022/10/13 09:41:43;;;;;;;3.53;2.80;;;19.30;60.70;;;;;;4968152;28;20011;-68
2022/10/13 09:44:18;;;;;;;3.15;2.75;;;19.40;60.70;;;;;;4968148;29;20039;-66
2022/10/13 09:46:52;;;;;;;4.22;2.90;;;19.40;60.80;;;;;;4968101;29;20031;-66
2022/10/13 09:49:40;;;;;;;4.05;2.95;;;19.40;60.80;;;;;;4967982;29;20311;-68
2022/10/13 09:52:11;;;;;;;3.35;2.58;;;19.40;60.70;;;;;;4968027;29;20023;-69
2022/10/13 09:54:45;;;;;;;4.45;3.08;;;19.40;60.80;;;;;;4967846;29;20023;-67
2022/10/13 09:57:19;;;;;;;3.53;2.50;;;19.40;60.80;;;;;;4967934;28;20019;-67
2022/10/13 10:00:13;;;;;;;3.78;2.90;;;19.40;60.80;;;;;;4967876;29;20022;-67
2022/10/13 10:03:12;;;;;;;3.47;2.90;;;19.40;60.70;;;;;;4969399;28;20031;-67
2022/10/13 10:05:52;;;;;;;3.00;2.25;;;19.40;60.70;;;;;;4966704;29;20019;-65
2022/10/13 10:08:40;;;;;;;3.60;2.95;;;19.40;60.70;;;;;;4967967;28;20023;-66
2022/10/13 10:11:18;;;;;;;2.53;2.25;;;19.40;60.60;;;;;;4967876;28;20023;-66
2022/10/13 10:13:44;;;;;;;4.05;2.88;;;19.40;60.80;;;;;;4966502;29;20023;-68
2022/10/13 10:16:30;;;;;;;5.68;3.10;;;19.40;60.70;;;;;;4967468;29;20078;-68
2022/10/13 10:18:56;;;;;;;4.05;2.63;;;19.40;60.70;;;;;;4967483;29;20038;-68
2022/10/13 10:21:42;;;;;;;5.93;2.97;;;19.40;60.70;;;;;;4967444;29;20047;-65
2022/10/13 10:24:19;;;;;;;3.53;2.45;;;19.50;60.80;;;;;;4967438;29;20019;-68
2022/10/13 10:27:05;;;;;;;4.55;2.90;;;19.40;60.70;;;;;;4967343;29;20046;-68
2022/10/13 10:29:43;;;;;;;6.05;2.40;;;19.50;60.70;;;;;;4967333;29;20039;-66
2022/10/13 10:32:26;;;;;;;3.28;2.63;;;19.50;60.70;;;;;;4967283;29;20027;-66
2022/10/13 10:35:04;;;;;;;4.13;2.83;;;19.50;60.70;;;;;;4966698;29;20130;-66
2022/10/13 10:37:43;;;;;;;4.57;3.30;;;19.50;60.70;;;;;;4967218;29;20016;-66
2022/10/13 10:40:27;;;;;;;;;;;19.50;60.70;;;;;;4967593;28;20022;-66
2022/10/13 10:43:30;;;;;;;3.17;2.70;;;19.50;60.70;;;;;;4967102;28;19970;-66
2022/10/13 10:45:58;;;;;;;3.30;2.63;;;19.50;60.70;;;;;;4967018;29;20035;-66
2022/10/13 10:48:37;;;;;;;6.40;2.97;;;19.50;60.70;;;;;;4967040;29;20015;-65
2022/10/13 10:51:06;;;;;;;5.68;2.78;;;19.60;60.70;;;;;;4966959;29;20023;-66
2022/10/13 10:53:54;;;;;;;3.45;2.63;;;19.50;60.70;;;;;;4966912;28;20019;-67
2022/10/13 10:56:30;;;;;;;4.10;3.03;;;19.60;60.70;;;;;;4966791;29;20385;-68
2022/10/13 10:59:28;;;;;;;4.82;3.47;;;19.60;60.70;;;;;;4966826;28;20020;-67
2022/10/13 11:02:05;;;;;;;4.13;2.78;;;19.60;60.60;;;;;;4966712;28;20095;-65
2022/10/13 11:04:38;;;;;;;3.35;2.72;;;19.60;60.70;;;;;;4966686;29;20032;-66
2022/10/13 11:07:08;;;;;;;4.68;2.80;;;19.60;60.80;;;;;;4966639;29;20019;-68
2022/10/13 11:09:40;;;;;;;4.80;3.03;;;19.60;60.80;;;;;;4966574;29;20082;-67
2022/10/13 11:12:18;;;;;;;3.08;2.53;;;19.60;60.80;;;;;;4966527;28;20023;-66
2022/10/13 11:14:46;;;;;;;2.92;2.42;;;19.60;60.80;;;;;;4966283;28;20030;-65
2022/10/13 11:17:27;;;;;;;4.40;2.67;;;19.50;60.80;;;;;;4966426;29;20015;-68
2022/10/13 11:19:53;;;;;;;4.10;2.70;;;19.50;60.80;;;;;;4966396;29;20019;-68
2022/10/13 11:22:28;;;;;;;3.33;2.63;;;19.50;61.00;;;;;;4966274;28;20071;-68
2022/10/13 11:24:59;;;;;;;5.55;2.65;;;19.50;61.00;;;;;;4966355;28;20019;-68
2022/10/13 11:27:34;;;;;;;3.55;2.40;;;19.60;60.80;;;;;;4966263;28;20027;-67
2022/10/13 11:30:00;;;;;;;4.10;3.03;;;19.60;60.70;;;;;;4966153;29;20046;-69
2022/10/13 11:32:40;;;;;;;3.10;2.38;;;19.60;60.70;;;;;;4966137;29;20061;-67
2022/10/13 11:35:09;;;;;;;3.38;2.55;;;19.60;60.60;;;;;;4966048;29;20090;-68
2022/10/13 11:37:34;;;;;;;;;;;19.70;60.60;;;;;;4966509;28;20028;-66
2022/10/13 11:40:24;;;;;;;4.07;2.78;;;19.70;60.50;;;;;;4966006;28;19909;-66
2022/10/13 11:43:14;;;;;;;3.95;2.70;;;19.70;60.60;;;;;;4965940;28;20015;-68
2022/10/13 11:45:51;;;;;;;3.63;2.75;;;19.70;60.60;;;;;;4965945;29;20026;-67
2022/10/13 11:48:49;;;;;;;3.67;2.83;;;19.70;60.70;;;;;;4965952;28;20019;-68
2022/10/13 11:51:33;;;;;;;3.22;2.28;;;19.70;60.70;;;;;;4966478;28;20207;-68
2022/10/13 11:54:18;;;;;;;2.45;2.25;;;19.60;60.70;;;;;;4965791;28;20441;-69
2022/10/13 11:56:56;;;;;;;4.50;2.80;;;19.70;60.70;;;;;;4965767;28;20023;-68
2022/10/13 11:59:32;;;;;;;3.70;2.30;;;19.70;60.80;;;;;;4965748;29;20023;-68
2022/10/13 12:02:18;;;;;;;2.97;2.35;;;19.60;60.70;;;;;;4965931;29;20176;-67
2022/10/13 12:05:27;;;;;;;3.00;2.70;;;19.70;60.80;;;;;;4965469;28;20031;-68
2022/10/13 12:07:57;;;;;;;2.97;2.60;;;19.70;60.70;;;;;;4969195;28;20110;-68
2022/10/13 12:10:30;;;;;;;4.75;3.05;;;19.70;60.80;;;;;;4965583;29;20046;-69
2022/10/13 12:12:57;;;;;;;3.92;2.97;;;19.70;60.70;;;;;;4965491;29;20023;-69
2022/10/13 12:15:43;;;;;;;4.00;2.60;;;19.70;60.60;;;;;;4965411;28;20370;-67
2022/10/13 12:18:24;;;;;;;4.00;2.45;;;19.80;60.60;;;;;;4965431;29;20030;-69
2022/10/13 12:20:57;;;;;;;3.20;2.40;;;19.80;60.60;;;;;;4965372;28;20023;-68
2022/10/13 12:23:24;;;;;;;4.88;2.55;;;19.80;60.50;;;;;;4965438;28;20015;-68
2022/10/13 12:25:56;;;;;;;7.78;3.22;;;19.80;60.40;;;;;;4964811;28;20251;-68
2022/10/13 12:28:27;;;;;;;3.33;2.30;;;19.90;60.40;;;;;;4965359;29;20027;-69
2022/10/13 12:30:58;;;;;;;5.63;2.88;;;19.90;60.30;;;;;;4965328;29;20027;-68
2022/10/13 12:33:34;;;;;;;3.75;2.65;;;19.90;60.30;;;;;;4965071;29;20039;-68
2022/10/13 12:36:21;;;;;;;2.58;2.03;;;19.90;60.30;;;;;;4965165;29;20023;-68
2022/10/13 12:38:50;;;;;;;4.25;3.08;;;19.90;60.40;;;;;;4965236;29;20035;-68
2022/10/13 12:41:31;;;;;;;4.03;2.42;;;19.90;60.40;;;;;;4965194;29;20023;-67
2022/10/13 12:43:57;;;;;;;3.70;2.63;;;20.00;60.20;;;;;;4965225;29;20034;-68
2022/10/13 12:46:55;;;;;;;3.03;2.25;;;20.10;60.10;;;;;;4965211;28;20023;-69
2022/10/13 12:49:35;;;;;;;2.40;2.20;;;20.10;59.80;;;;;;4965213;29;20094;-67
2022/10/13 12:52:15;;;;;;;3.72;2.83;;;20.20;59.70;;;;;;4964001;29;20023;-69
2022/10/13 12:54:56;;;;;;;4.03;2.63;;;20.30;59.50;;;;;;4965027;29;20218;-68
2022/10/13 12:57:36;;;;;;;4.18;2.60;;;20.30;59.30;;;;;;4965061;29;20023;-67
2022/10/13 13:00:22;;;;;;;2.97;2.50;;;20.40;59.20;;;;;;4965105;28;20058;-69
2022/10/13 13:03:02;;;;;;;3.20;2.42;;;20.50;59.00;;;;;;4965031;29;20020;-65
2022/10/13 13:05:33;;;;;;;2.50;2.30;;;20.50;59.00;;;;;;4965055;28;20054;-66
2022/10/13 13:08:00;;;;;;;3.45;2.55;;;20.60;58.70;;;;;;4965020;29;20019;-66